sensor_id;sensor_type;location;lat;lon;timestamp;P1;durP1;ratioP1;P2;durP2;ratioP2
13406;SDS011;6774;48.208;10.766;2022-12-31T00:00:33;0.27;;;0.17;;
13406;SDS011;6774;48.208;10.766;2022-12-31T00:03:05;0.20;;;0.10;;
13406;SDS011;6774;48.208;10.766;2022-12-31T00:05:35;0.27;;;0.17;;
13406;SDS011;6774;48.208;10.766;2022-12-31T00:08:03;0.30;;;0.10;;
13406;SDS011;6774;48.208;10.766;2022-12-31T00:10:31;0.30;;;0.30;;
13406;SDS011;6774;48.208;10.766;2022-12-31T00:13:05;0.20;;;0.20;;
13406;SDS011;6774;48.208;10.766;2022-12-31T00:15:33;0.20;;;0.10;;
13406;SDS011;6774;48.208;10.766;2022-12-31T00:18:05;0.20;;;0.20;;
13406;SDS011;6774;48.208;10.766;2022-12-31T00:20:33;0.40;;;0.40;;
13406;SDS011;6774;48.208;10.766;2022-12-31T00:23:01;0.10;;;0.10;;
13406;SDS011;6774;48.208;10.766;2022-12-31T00:25:29;0.70;;;0.53;;
13406;SDS011;6774;48.208;10.766;2022-12-31T00:27:57;0.30;;;0.20;;
13406;SDS011;6774;48.208;10.766;2022-12-31T00:30:25;0.10;;;0.10;;
13406;SDS011;6774;48.208;10.766;2022-12-31T00:32:53;0.40;;;0.40;;
13406;SDS011;6774;48.208;10.766;2022-12-31T00:35:22;0.60;;;0.10;;
13406;SDS011;6774;48.208;10.766;2022-12-31T00:37:50;0.10;;;0.07;;
13406;SDS011;6774;48.208;10.766;2022-12-31T00:40:18;0.20;;;0.20;;
13406;SDS011;6774;48.208;10.766;2022-12-31T00:42:47;0.10;;;0.10;;
13406;SDS011;6774;48.208;10.766;2022-12-31T00:45:14;0.10;;;0.10;;
13406;SDS011;6774;48.208;10.766;2022-12-31T00:47:42;0.13;;;0.10;;
13406;SDS011;6774;48.208;10.766;2022-12-31T00:50:10;0.10;;;0.10;;
13406;SDS011;6774;48.208;10.766;2022-12-31T00:52:40;0.10;;;0.10;;
13406;SDS011;6774;48.208;10.766;2022-12-31T00:55:08;0.20;;;0.10;;
13406;SDS011;6774;48.208;10.766;2022-12-31T00:57:36;1.33;;;0.23;;
13406;SDS011;6774;48.208;10.766;2022-12-31T01:00:04;2.93;;;1.10;;
13406;SDS011;6774;48.208;10.766;2022-12-31T01:02:34;3.40;;;0.20;;
13406;SDS011;6774;48.208;10.766;2022-12-31T01:05:02;0.10;;;0.10;;
13406;SDS011;6774;48.208;10.766;2022-12-31T01:07:30;0.10;;;0.10;;
13406;SDS011;6774;48.208;10.766;2022-12-31T01:09:59;0.30;;;0.17;;
13406;SDS011;6774;48.208;10.766;2022-12-31T01:12:27;0.20;;;0.20;;
13406;SDS011;6774;48.208;10.766;2022-12-31T01:14:55;1.70;;;0.30;;
13406;SDS011;6774;48.208;10.766;2022-12-31T01:17:23;0.30;;;0.30;;
13406;SDS011;6774;48.208;10.766;2022-12-31T01:19:50;0.63;;;0.63;;
13406;SDS011;6774;48.208;10.766;2022-12-31T01:22:18;0.10;;;0.10;;
13406;SDS011;6774;48.208;10.766;2022-12-31T01:24:46;0.10;;;0.10;;
13406;SDS011;6774;48.208;10.766;2022-12-31T01:27:16;0.10;;;0.10;;
13406;SDS011;6774;48.208;10.766;2022-12-31T01:29:43;0.40;;;0.10;;
13406;SDS011;6774;48.208;10.766;2022-12-31T01:32:13;0.20;;;0.20;;
13406;SDS011;6774;48.208;10.766;2022-12-31T01:34:40;0.10;;;0.10;;
13406;SDS011;6774;48.208;10.766;2022-12-31T01:37:08;0.23;;;0.13;;
13406;SDS011;6774;48.208;10.766;2022-12-31T01:39:36;0.10;;;0.10;;
13406;SDS011;6774;48.208;10.766;2022-12-31T01:42:04;0.00;;;0.00;;
13406;SDS011;6774;48.208;10.766;2022-12-31T01:44:47;0.10;;;0.10;;
13406;SDS011;6774;48.208;10.766;2022-12-31T01:47:18;0.20;;;0.10;;
13406;SDS011;6774;48.208;10.766;2022-12-31T01:50:00;0.20;;;0.10;;
13406;SDS011;6774;48.208;10.766;2022-12-31T01:52:33;0.17;;;0.10;;
13406;SDS011;6774;48.208;10.766;2022-12-31T01:55:06;0.10;;;0.10;;
13406;SDS011;6774;48.208;10.766;2022-12-31T01:57:41;0.10;;;0.10;;
13406;SDS011;6774;48.208;10.766;2022-12-31T02:00:12;0.20;;;0.20;;
13406;SDS011;6774;48.208;10.766;2022-12-31T02:02:42;0.13;;;0.10;;
13406;SDS011;6774;48.208;10.766;2022-12-31T02:05:12;0.10;;;0.10;;
13406;SDS011;6774;48.208;10.766;2022-12-31T02:07:45;0.10;;;0.10;;
13406;SDS011;6774;48.208;10.766;2022-12-31T02:10:15;0.00;;;0.00;;
13406;SDS011;6774;48.208;10.766;2022-12-31T02:12:43;0.00;;;0.00;;
13406;SDS011;6774;48.208;10.766;2022-12-31T02:15:13;0.20;;;0.00;;
13406;SDS011;6774;48.208;10.766;2022-12-31T02:17:43;0.10;;;0.10;;
13406;SDS011;6774;48.208;10.766;2022-12-31T02:20:26;0.00;;;0.00;;
13406;SDS011;6774;48.208;10.766;2022-12-31T02:23:16;0.07;;;0.00;;
13406;SDS011;6774;48.208;10.766;2022-12-31T02:26:18;0.23;;;0.23;;
13406;SDS011;6774;48.208;10.766;2022-12-31T02:29:24;0.10;;;0.10;;
13406;SDS011;6774;48.208;10.766;2022-12-31T02:32:12;0.17;;;0.10;;
13406;SDS011;6774;48.208;10.766;2022-12-31T02:34:47;0.40;;;0.10;;
13406;SDS011;6774;48.208;10.766;2022-12-31T02:37:22;0.20;;;0.00;;
13406;SDS011;6774;48.208;10.766;2022-12-31T02:39:51;0.30;;;0.10;;
13406;SDS011;6774;48.208;10.766;2022-12-31T02:42:20;0.03;;;0.03;;
13406;SDS011;6774;48.208;10.766;2022-12-31T02:44:47;0.73;;;0.13;;
13406;SDS011;6774;48.208;10.766;2022-12-31T02:47:26;0.20;;;0.10;;
13406;SDS011;6774;48.208;10.766;2022-12-31T02:50:11;0.00;;;0.00;;
13406;SDS011;6774;48.208;10.766;2022-12-31T02:52:54;0.23;;;0.10;;
13406;SDS011;6774;48.208;10.766;2022-12-31T02:55:33;0.00;;;0.00;;
13406;SDS011;6774;48.208;10.766;2022-12-31T02:58:10;0.20;;;0.20;;
13406;SDS011;6774;48.208;10.766;2022-12-31T03:00:47;0.00;;;0.00;;
13406;SDS011;6774;48.208;10.766;2022-12-31T03:03:37;0.10;;;0.03;;
13406;SDS011;6774;48.208;10.766;2022-12-31T03:06:06;0.40;;;0.10;;
13406;SDS011;6774;48.208;10.766;2022-12-31T03:08:36;0.10;;;0.10;;
13406;SDS011;6774;48.208;10.766;2022-12-31T03:11:23;1.80;;;0.30;;
13406;SDS011;6774;48.208;10.766;2022-12-31T03:14:05;0.10;;;0.10;;
13406;SDS011;6774;48.208;10.766;2022-12-31T03:16:32;0.20;;;0.10;;
13406;SDS011;6774;48.208;10.766;2022-12-31T03:19:02;0.00;;;0.00;;
13406;SDS011;6774;48.208;10.766;2022-12-31T03:21:47;0.10;;;0.10;;
13406;SDS011;6774;48.208;10.766;2022-12-31T03:24:32;0.00;;;0.00;;
13406;SDS011;6774;48.208;10.766;2022-12-31T03:27:18;0.00;;;0.00;;
13406;SDS011;6774;48.208;10.766;2022-12-31T03:29:46;0.00;;;0.00;;
13406;SDS011;6774;48.208;10.766;2022-12-31T03:32:14;0.03;;;0.00;;
13406;SDS011;6774;48.208;10.766;2022-12-31T03:34:44;0.00;;;0.00;;
13406;SDS011;6774;48.208;10.766;2022-12-31T03:37:11;0.00;;;0.00;;
13406;SDS011;6774;48.208;10.766;2022-12-31T03:39:40;0.27;;;0.10;;
13406;SDS011;6774;48.208;10.766;2022-12-31T03:42:08;0.67;;;0.67;;
13406;SDS011;6774;48.208;10.766;2022-12-31T03:44:35;0.07;;;0.07;;
13406;SDS011;6774;48.208;10.766;2022-12-31T03:47:03;0.00;;;0.00;;
13406;SDS011;6774;48.208;10.766;2022-12-31T03:49:31;0.00;;;0.00;;
13406;SDS011;6774;48.208;10.766;2022-12-31T03:52:00;0.10;;;0.10;;
13406;SDS011;6774;48.208;10.766;2022-12-31T03:54:29;0.17;;;0.07;;
13406;SDS011;6774;48.208;10.766;2022-12-31T03:56:57;1.60;;;0.30;;
13406;SDS011;6774;48.208;10.766;2022-12-31T03:59:26;0.10;;;0.10;;
13406;SDS011;6774;48.208;10.766;2022-12-31T04:01:53;0.10;;;0.00;;
13406;SDS011;6774;48.208;10.766;2022-12-31T04:04:22;0.03;;;0.03;;
13406;SDS011;6774;48.208;10.766;2022-12-31T04:06:49;0.00;;;0.00;;
13406;SDS011;6774;48.208;10.766;2022-12-31T04:09:19;0.53;;;0.17;;
13406;SDS011;6774;48.208;10.766;2022-12-31T04:11:47;1.10;;;0.10;;
13406;SDS011;6774;48.208;10.766;2022-12-31T04:14:15;0.10;;;0.00;;
13406;SDS011;6774;48.208;10.766;2022-12-31T04:16:43;0.03;;;0.00;;
13406;SDS011;6774;48.208;10.766;2022-12-31T04:19:12;0.40;;;0.23;;
13406;SDS011;6774;48.208;10.766;2022-12-31T04:21:40;0.43;;;0.10;;
13406;SDS011;6774;48.208;10.766;2022-12-31T04:24:08;0.77;;;0.67;;
13406;SDS011;6774;48.208;10.766;2022-12-31T04:26:38;0.00;;;0.00;;
13406;SDS011;6774;48.208;10.766;2022-12-31T04:29:06;0.00;;;0.00;;
13406;SDS011;6774;48.208;10.766;2022-12-31T04:31:33;0.40;;;0.13;;
13406;SDS011;6774;48.208;10.766;2022-12-31T04:34:02;0.10;;;0.10;;
13406;SDS011;6774;48.208;10.766;2022-12-31T04:36:29;0.00;;;0.00;;
13406;SDS011;6774;48.208;10.766;2022-12-31T04:38:58;0.10;;;0.10;;
13406;SDS011;6774;48.208;10.766;2022-12-31T04:41:26;0.17;;;0.17;;
13406;SDS011;6774;48.208;10.766;2022-12-31T04:43:55;3.07;;;0.57;;
13406;SDS011;6774;48.208;10.766;2022-12-31T04:46:25;0.13;;;0.10;;
13406;SDS011;6774;48.208;10.766;2022-12-31T04:48:54;0.10;;;0.10;;
13406;SDS011;6774;48.208;10.766;2022-12-31T04:51:22;0.00;;;0.00;;
13406;SDS011;6774;48.208;10.766;2022-12-31T04:53:52;0.00;;;0.00;;
13406;SDS011;6774;48.208;10.766;2022-12-31T04:56:21;0.13;;;0.10;;
13406;SDS011;6774;48.208;10.766;2022-12-31T04:58:49;0.20;;;0.20;;
13406;SDS011;6774;48.208;10.766;2022-12-31T05:01:18;0.07;;;0.03;;
13406;SDS011;6774;48.208;10.766;2022-12-31T05:03:46;0.00;;;0.00;;
13406;SDS011;6774;48.208;10.766;2022-12-31T05:06:16;0.10;;;0.10;;
13406;SDS011;6774;48.208;10.766;2022-12-31T05:08:45;0.23;;;0.10;;
13406;SDS011;6774;48.208;10.766;2022-12-31T05:11:13;0.10;;;0.00;;
13406;SDS011;6774;48.208;10.766;2022-12-31T05:13:42;0.00;;;0.00;;
13406;SDS011;6774;48.208;10.766;2022-12-31T05:16:10;0.87;;;0.10;;
13406;SDS011;6774;48.208;10.766;2022-12-31T05:18:39;0.00;;;0.00;;
13406;SDS011;6774;48.208;10.766;2022-12-31T05:21:08;0.00;;;0.00;;
13406;SDS011;6774;48.208;10.766;2022-12-31T05:23:41;0.97;;;0.10;;
13406;SDS011;6774;48.208;10.766;2022-12-31T05:26:10;0.00;;;0.00;;
13406;SDS011;6774;48.208;10.766;2022-12-31T05:28:38;0.43;;;0.43;;
13406;SDS011;6774;48.208;10.766;2022-12-31T05:31:06;0.03;;;0.03;;
13406;SDS011;6774;48.208;10.766;2022-12-31T05:33:33;0.30;;;0.10;;
13406;SDS011;6774;48.208;10.766;2022-12-31T05:36:04;0.10;;;0.10;;
13406;SDS011;6774;48.208;10.766;2022-12-31T05:38:32;0.70;;;0.10;;
13406;SDS011;6774;48.208;10.766;2022-12-31T05:41:01;0.20;;;0.10;;
13406;SDS011;6774;48.208;10.766;2022-12-31T05:43:29;0.07;;;0.07;;
13406;SDS011;6774;48.208;10.766;2022-12-31T05:45:59;0.20;;;0.20;;
13406;SDS011;6774;48.208;10.766;2022-12-31T05:48:27;0.00;;;0.00;;
13406;SDS011;6774;48.208;10.766;2022-12-31T05:50:55;0.10;;;0.00;;
13406;SDS011;6774;48.208;10.766;2022-12-31T05:53:25;0.10;;;0.10;;
13406;SDS011;6774;48.208;10.766;2022-12-31T05:55:53;0.00;;;0.00;;
13406;SDS011;6774;48.208;10.766;2022-12-31T05:58:21;0.00;;;0.00;;
13406;SDS011;6774;48.208;10.766;2022-12-31T06:00:50;0.03;;;0.03;;
13406;SDS011;6774;48.208;10.766;2022-12-31T06:03:18;0.10;;;0.00;;
13406;SDS011;6774;48.208;10.766;2022-12-31T06:05:47;0.23;;;0.23;;
13406;SDS011;6774;48.208;10.766;2022-12-31T06:08:15;0.00;;;0.00;;
13406;SDS011;6774;48.208;10.766;2022-12-31T06:10:44;0.13;;;0.07;;
13406;SDS011;6774;48.208;10.766;2022-12-31T06:13:12;0.50;;;0.50;;
13406;SDS011;6774;48.208;10.766;2022-12-31T06:15:40;0.27;;;0.10;;
13406;SDS011;6774;48.208;10.766;2022-12-31T06:18:08;0.20;;;0.20;;
13406;SDS011;6774;48.208;10.766;2022-12-31T06:20:36;0.00;;;0.00;;
13406;SDS011;6774;48.208;10.766;2022-12-31T06:23:04;0.00;;;0.00;;
13406;SDS011;6774;48.208;10.766;2022-12-31T06:25:34;0.10;;;0.10;;
13406;SDS011;6774;48.208;10.766;2022-12-31T06:28:04;0.20;;;0.10;;
13406;SDS011;6774;48.208;10.766;2022-12-31T06:30:32;0.73;;;0.00;;
13406;SDS011;6774;48.208;10.766;2022-12-31T06:33:00;0.40;;;0.10;;
13406;SDS011;6774;48.208;10.766;2022-12-31T06:35:28;0.20;;;0.10;;
13406;SDS011;6774;48.208;10.766;2022-12-31T06:37:56;0.20;;;0.10;;
13406;SDS011;6774;48.208;10.766;2022-12-31T06:40:24;0.03;;;0.03;;
13406;SDS011;6774;48.208;10.766;2022-12-31T06:42:52;0.23;;;0.23;;
13406;SDS011;6774;48.208;10.766;2022-12-31T06:45:27;0.30;;;0.30;;
13406;SDS011;6774;48.208;10.766;2022-12-31T06:47:55;0.10;;;0.10;;
13406;SDS011;6774;48.208;10.766;2022-12-31T06:50:22;0.10;;;0.10;;
13406;SDS011;6774;48.208;10.766;2022-12-31T06:52:52;0.20;;;0.10;;
13406;SDS011;6774;48.208;10.766;2022-12-31T06:55:20;0.10;;;0.10;;
13406;SDS011;6774;48.208;10.766;2022-12-31T06:57:48;0.10;;;0.10;;
13406;SDS011;6774;48.208;10.766;2022-12-31T07:00:17;0.10;;;0.10;;
13406;SDS011;6774;48.208;10.766;2022-12-31T07:03:00;0.00;;;0.00;;
13406;SDS011;6774;48.208;10.766;2022-12-31T07:05:41;0.10;;;0.00;;
13406;SDS011;6774;48.208;10.766;2022-12-31T07:08:17;0.00;;;0.00;;
13406;SDS011;6774;48.208;10.766;2022-12-31T07:10:58;0.10;;;0.10;;
13406;SDS011;6774;48.208;10.766;2022-12-31T07:13:44;0.00;;;0.00;;
13406;SDS011;6774;48.208;10.766;2022-12-31T07:16:24;0.07;;;0.07;;
13406;SDS011;6774;48.208;10.766;2022-12-31T07:19:08;0.37;;;0.30;;
13406;SDS011;6774;48.208;10.766;2022-12-31T07:21:43;0.00;;;0.00;;
13406;SDS011;6774;48.208;10.766;2022-12-31T07:24:13;0.30;;;0.00;;
13406;SDS011;6774;48.208;10.766;2022-12-31T07:26:45;0.00;;;0.00;;
13406;SDS011;6774;48.208;10.766;2022-12-31T07:29:24;0.00;;;0.00;;
13406;SDS011;6774;48.208;10.766;2022-12-31T07:32:06;0.10;;;0.10;;
13406;SDS011;6774;48.208;10.766;2022-12-31T07:34:48;0.10;;;0.10;;
13406;SDS011;6774;48.208;10.766;2022-12-31T07:37:25;0.63;;;0.10;;
13406;SDS011;6774;48.208;10.766;2022-12-31T07:40:01;0.20;;;0.20;;
13406;SDS011;6774;48.208;10.766;2022-12-31T07:42:38;1.03;;;0.33;;
13406;SDS011;6774;48.208;10.766;2022-12-31T07:45:16;0.50;;;0.10;;
13406;SDS011;6774;48.208;10.766;2022-12-31T07:47:50;0.30;;;0.10;;
13406;SDS011;6774;48.208;10.766;2022-12-31T07:50:29;0.63;;;0.63;;
13406;SDS011;6774;48.208;10.766;2022-12-31T07:52:58;0.20;;;0.10;;
13406;SDS011;6774;48.208;10.766;2022-12-31T07:55:26;0.10;;;0.10;;
13406;SDS011;6774;48.208;10.766;2022-12-31T07:58:00;0.43;;;0.43;;
13406;SDS011;6774;48.208;10.766;2022-12-31T08:00:37;0.27;;;0.23;;
13406;SDS011;6774;48.208;10.766;2022-12-31T08:03:10;0.13;;;0.10;;
13406;SDS011;6774;48.208;10.766;2022-12-31T08:05:51;0.10;;;0.10;;
13406;SDS011;6774;48.208;10.766;2022-12-31T08:08:32;0.30;;;0.30;;
13406;SDS011;6774;48.208;10.766;2022-12-31T08:11:09;0.10;;;0.10;;
13406;SDS011;6774;48.208;10.766;2022-12-31T08:13:42;0.23;;;0.20;;
13406;SDS011;6774;48.208;10.766;2022-12-31T08:16:12;0.13;;;0.10;;
13406;SDS011;6774;48.208;10.766;2022-12-31T08:18:41;0.10;;;0.10;;
13406;SDS011;6774;48.208;10.766;2022-12-31T08:21:13;0.03;;;0.00;;
13406;SDS011;6774;48.208;10.766;2022-12-31T08:23:59;0.20;;;0.20;;
13406;SDS011;6774;48.208;10.766;2022-12-31T08:26:39;0.20;;;0.10;;
13406;SDS011;6774;48.208;10.766;2022-12-31T08:29:31;0.13;;;0.10;;
13406;SDS011;6774;48.208;10.766;2022-12-31T08:32:05;0.20;;;0.20;;
13406;SDS011;6774;48.208;10.766;2022-12-31T08:34:40;0.30;;;0.30;;
13406;SDS011;6774;48.208;10.766;2022-12-31T08:37:18;0.37;;;0.33;;
13406;SDS011;6774;48.208;10.766;2022-12-31T08:39:59;0.10;;;0.10;;
13406;SDS011;6774;48.208;10.766;2022-12-31T08:42:41;0.00;;;0.00;;
13406;SDS011;6774;48.208;10.766;2022-12-31T08:45:20;3.53;;;1.33;;
13406;SDS011;6774;48.208;10.766;2022-12-31T08:47:57;0.47;;;0.20;;
13406;SDS011;6774;48.208;10.766;2022-12-31T08:50:29;1.13;;;0.30;;
13406;SDS011;6774;48.208;10.766;2022-12-31T08:52:59;0.47;;;0.47;;
13406;SDS011;6774;48.208;10.766;2022-12-31T08:55:27;0.20;;;0.10;;
13406;SDS011;6774;48.208;10.766;2022-12-31T08:58:02;0.10;;;0.10;;
13406;SDS011;6774;48.208;10.766;2022-12-31T09:00:38;0.50;;;0.50;;
13406;SDS011;6774;48.208;10.766;2022-12-31T09:03:11;2.53;;;0.20;;
13406;SDS011;6774;48.208;10.766;2022-12-31T09:05:54;0.10;;;0.10;;
13406;SDS011;6774;48.208;10.766;2022-12-31T09:08:32;0.40;;;0.20;;
13406;SDS011;6774;48.208;10.766;2022-12-31T09:11:06;0.17;;;0.13;;
13406;SDS011;6774;48.208;10.766;2022-12-31T09:13:57;0.30;;;0.30;;
13406;SDS011;6774;48.208;10.766;2022-12-31T09:16:35;0.30;;;0.20;;
13406;SDS011;6774;48.208;10.766;2022-12-31T09:19:11;0.10;;;0.10;;
13406;SDS011;6774;48.208;10.766;2022-12-31T09:21:39;0.50;;;0.50;;
13406;SDS011;6774;48.208;10.766;2022-12-31T09:24:12;0.53;;;0.20;;
13406;SDS011;6774;48.208;10.766;2022-12-31T09:26:43;1.10;;;0.10;;
13406;SDS011;6774;48.208;10.766;2022-12-31T09:29:21;0.40;;;0.33;;
13406;SDS011;6774;48.208;10.766;2022-12-31T09:31:58;0.23;;;0.20;;
13406;SDS011;6774;48.208;10.766;2022-12-31T09:34:34;0.17;;;0.10;;
13406;SDS011;6774;48.208;10.766;2022-12-31T09:37:09;0.10;;;0.10;;
13406;SDS011;6774;48.208;10.766;2022-12-31T09:39:43;0.20;;;0.20;;
13406;SDS011;6774;48.208;10.766;2022-12-31T09:45:24;0.10;;;0.10;;
13406;SDS011;6774;48.208;10.766;2022-12-31T09:48:09;0.10;;;0.10;;
13406;SDS011;6774;48.208;10.766;2022-12-31T09:51:19;0.10;;;0.10;;
13406;SDS011;6774;48.208;10.766;2022-12-31T09:54:02;2.00;;;0.30;;
13406;SDS011;6774;48.208;10.766;2022-12-31T09:56:44;0.10;;;0.10;;
13406;SDS011;6774;48.208;10.766;2022-12-31T09:59:27;0.30;;;0.10;;
13406;SDS011;6774;48.208;10.766;2022-12-31T10:02:01;0.20;;;0.20;;
13406;SDS011;6774;48.208;10.766;2022-12-31T10:04:49;0.00;;;0.00;;
13406;SDS011;6774;48.208;10.766;2022-12-31T10:07:31;0.20;;;0.13;;
13406;SDS011;6774;48.208;10.766;2022-12-31T10:10:19;0.50;;;0.50;;
13406;SDS011;6774;48.208;10.766;2022-12-31T10:13:13;4.73;;;0.20;;
13406;SDS011;6774;48.208;10.766;2022-12-31T10:15:57;0.90;;;0.13;;
13406;SDS011;6774;48.208;10.766;2022-12-31T10:18:36;0.10;;;0.10;;
13406;SDS011;6774;48.208;10.766;2022-12-31T10:21:20;0.10;;;0.10;;
13406;SDS011;6774;48.208;10.766;2022-12-31T10:24:03;1.03;;;0.03;;
13406;SDS011;6774;48.208;10.766;2022-12-31T10:29:44;0.20;;;0.10;;
13406;SDS011;6774;48.208;10.766;2022-12-31T10:32:17;0.10;;;0.10;;
13406;SDS011;6774;48.208;10.766;2022-12-31T10:34:57;0.00;;;0.00;;
13406;SDS011;6774;48.208;10.766;2022-12-31T10:37:32;0.33;;;0.33;;
13406;SDS011;6774;48.208;10.766;2022-12-31T10:40:14;0.10;;;0.10;;
13406;SDS011;6774;48.208;10.766;2022-12-31T10:42:56;0.20;;;0.20;;
13406;SDS011;6774;48.208;10.766;2022-12-31T10:52:24;0.27;;;0.10;;
13406;SDS011;6774;48.208;10.766;2022-12-31T10:55:24;0.20;;;0.10;;
13406;SDS011;6774;48.208;10.766;2022-12-31T11:01:12;0.10;;;0.10;;
13406;SDS011;6774;48.208;10.766;2022-12-31T11:03:58;0.20;;;0.20;;
13406;SDS011;6774;48.208;10.766;2022-12-31T11:09:59;0.10;;;0.10;;
13406;SDS011;6774;48.208;10.766;2022-12-31T11:12:56;0.10;;;0.10;;
13406;SDS011;6774;48.208;10.766;2022-12-31T11:15:49;1.43;;;0.07;;
13406;SDS011;6774;48.208;10.766;2022-12-31T11:18:35;0.10;;;0.10;;
13406;SDS011;6774;48.208;10.766;2022-12-31T11:21:18;0.10;;;0.00;;
13406;SDS011;6774;48.208;10.766;2022-12-31T11:23:55;0.27;;;0.10;;
13406;SDS011;6774;48.208;10.766;2022-12-31T11:26:33;0.20;;;0.20;;
13406;SDS011;6774;48.208;10.766;2022-12-31T11:29:21;0.17;;;0.17;;
13406;SDS011;6774;48.208;10.766;2022-12-31T11:32:03;0.10;;;0.10;;
13406;SDS011;6774;48.208;10.766;2022-12-31T11:34:48;0.00;;;0.00;;
13406;SDS011;6774;48.208;10.766;2022-12-31T11:37:31;0.10;;;0.10;;
13406;SDS011;6774;48.208;10.766;2022-12-31T11:40:14;2.23;;;0.20;;
13406;SDS011;6774;48.208;10.766;2022-12-31T11:42:54;0.10;;;0.10;;
13406;SDS011;6774;48.208;10.766;2022-12-31T11:45:28;1.80;;;0.10;;
13406;SDS011;6774;48.208;10.766;2022-12-31T11:48:18;0.17;;;0.10;;
13406;SDS011;6774;48.208;10.766;2022-12-31T11:50:59;0.20;;;0.10;;
13406;SDS011;6774;48.208;10.766;2022-12-31T11:53:45;0.30;;;0.30;;
13406;SDS011;6774;48.208;10.766;2022-12-31T11:56:31;1.90;;;0.10;;
13406;SDS011;6774;48.208;10.766;2022-12-31T11:59:05;0.50;;;0.50;;
13406;SDS011;6774;48.208;10.766;2022-12-31T12:01:46;0.87;;;0.53;;
13406;SDS011;6774;48.208;10.766;2022-12-31T12:04:20;1.70;;;0.27;;
13406;SDS011;6774;48.208;10.766;2022-12-31T12:06:48;0.40;;;0.10;;
13406;SDS011;6774;48.208;10.766;2022-12-31T12:09:25;0.10;;;0.10;;
13406;SDS011;6774;48.208;10.766;2022-12-31T12:11:58;0.20;;;0.10;;
13406;SDS011;6774;48.208;10.766;2022-12-31T12:14:30;0.10;;;0.10;;
13406;SDS011;6774;48.208;10.766;2022-12-31T12:16:58;0.30;;;0.30;;
13406;SDS011;6774;48.208;10.766;2022-12-31T12:19:31;0.10;;;0.10;;
13406;SDS011;6774;48.208;10.766;2022-12-31T12:22:08;1.20;;;0.27;;
13406;SDS011;6774;48.208;10.766;2022-12-31T12:24:38;0.10;;;0.10;;
13406;SDS011;6774;48.208;10.766;2022-12-31T12:27:18;0.67;;;0.67;;
13406;SDS011;6774;48.208;10.766;2022-12-31T12:29:47;0.20;;;0.20;;
13406;SDS011;6774;48.208;10.766;2022-12-31T12:32:16;0.10;;;0.10;;
13406;SDS011;6774;48.208;10.766;2022-12-31T12:34:45;0.30;;;0.30;;
13406;SDS011;6774;48.208;10.766;2022-12-31T12:37:26;0.50;;;0.20;;
13406;SDS011;6774;48.208;10.766;2022-12-31T12:39:59;1.40;;;0.10;;
13406;SDS011;6774;48.208;10.766;2022-12-31T12:42:30;0.10;;;0.10;;
13406;SDS011;6774;48.208;10.766;2022-12-31T12:44:59;0.23;;;0.20;;
13406;SDS011;6774;48.208;10.766;2022-12-31T12:47:28;0.10;;;0.10;;
13406;SDS011;6774;48.208;10.766;2022-12-31T12:49:57;0.43;;;0.10;;
13406;SDS011;6774;48.208;10.766;2022-12-31T12:52:33;0.10;;;0.10;;
13406;SDS011;6774;48.208;10.766;2022-12-31T12:55:16;0.40;;;0.40;;
13406;SDS011;6774;48.208;10.766;2022-12-31T12:57:49;0.53;;;0.20;;
13406;SDS011;6774;48.208;10.766;2022-12-31T13:00:28;1.10;;;0.47;;
13406;SDS011;6774;48.208;10.766;2022-12-31T13:06:00;0.13;;;0.10;;
13406;SDS011;6774;48.208;10.766;2022-12-31T13:08:42;0.13;;;0.10;;
13406;SDS011;6774;48.208;10.766;2022-12-31T13:11:34;0.17;;;0.10;;
13406;SDS011;6774;48.208;10.766;2022-12-31T13:14:12;0.10;;;0.10;;
13406;SDS011;6774;48.208;10.766;2022-12-31T13:16:50;0.10;;;0.10;;
13406;SDS011;6774;48.208;10.766;2022-12-31T13:19:26;0.10;;;0.10;;
13406;SDS011;6774;48.208;10.766;2022-12-31T13:22:01;0.10;;;0.10;;
13406;SDS011;6774;48.208;10.766;2022-12-31T13:24:41;2.07;;;0.23;;
13406;SDS011;6774;48.208;10.766;2022-12-31T13:27:18;0.33;;;0.20;;
13406;SDS011;6774;48.208;10.766;2022-12-31T13:29:53;0.17;;;0.10;;
13406;SDS011;6774;48.208;10.766;2022-12-31T13:32:23;0.30;;;0.17;;
13406;SDS011;6774;48.208;10.766;2022-12-31T13:35:01;0.13;;;0.13;;
13406;SDS011;6774;48.208;10.766;2022-12-31T13:37:43;0.50;;;0.20;;
13406;SDS011;6774;48.208;10.766;2022-12-31T13:40:16;0.13;;;0.10;;
13406;SDS011;6774;48.208;10.766;2022-12-31T13:42:50;0.20;;;0.20;;
13406;SDS011;6774;48.208;10.766;2022-12-31T13:45:23;0.10;;;0.10;;
13406;SDS011;6774;48.208;10.766;2022-12-31T13:47:55;0.10;;;0.10;;
13406;SDS011;6774;48.208;10.766;2022-12-31T13:50:28;0.10;;;0.10;;
13406;SDS011;6774;48.208;10.766;2022-12-31T13:53:02;0.50;;;0.30;;
13406;SDS011;6774;48.208;10.766;2022-12-31T13:55:36;0.30;;;0.20;;
13406;SDS011;6774;48.208;10.766;2022-12-31T13:58:10;2.93;;;0.20;;
13406;SDS011;6774;48.208;10.766;2022-12-31T14:00:49;2.80;;;0.20;;
13406;SDS011;6774;48.208;10.766;2022-12-31T14:03:26;0.17;;;0.17;;
13406;SDS011;6774;48.208;10.766;2022-12-31T14:06:05;0.03;;;0.03;;
13406;SDS011;6774;48.208;10.766;2022-12-31T14:08:42;0.20;;;0.10;;
13406;SDS011;6774;48.208;10.766;2022-12-31T14:11:13;0.10;;;0.10;;
13406;SDS011;6774;48.208;10.766;2022-12-31T14:13:57;0.00;;;0.00;;
13406;SDS011;6774;48.208;10.766;2022-12-31T14:16:34;0.20;;;0.20;;
13406;SDS011;6774;48.208;10.766;2022-12-31T14:19:10;1.87;;;0.20;;
13406;SDS011;6774;48.208;10.766;2022-12-31T14:21:56;0.20;;;0.10;;
13406;SDS011;6774;48.208;10.766;2022-12-31T14:24:31;0.57;;;0.20;;
13406;SDS011;6774;48.208;10.766;2022-12-31T14:27:10;0.50;;;0.10;;
13406;SDS011;6774;48.208;10.766;2022-12-31T14:29:45;0.40;;;0.10;;
13406;SDS011;6774;48.208;10.766;2022-12-31T14:32:27;0.87;;;0.50;;
13406;SDS011;6774;48.208;10.766;2022-12-31T14:35:17;0.53;;;0.53;;
13406;SDS011;6774;48.208;10.766;2022-12-31T14:37:55;1.73;;;1.57;;
13406;SDS011;6774;48.208;10.766;2022-12-31T14:40:36;0.87;;;0.87;;
13406;SDS011;6774;48.208;10.766;2022-12-31T14:43:15;4.50;;;3.40;;
13406;SDS011;6774;48.208;10.766;2022-12-31T14:45:52;5.47;;;2.50;;
13406;SDS011;6774;48.208;10.766;2022-12-31T14:48:33;3.17;;;2.03;;
13406;SDS011;6774;48.208;10.766;2022-12-31T14:51:07;1.77;;;1.67;;
13406;SDS011;6774;48.208;10.766;2022-12-31T14:53:35;1.33;;;1.23;;
13406;SDS011;6774;48.208;10.766;2022-12-31T14:56:04;0.70;;;0.70;;
13406;SDS011;6774;48.208;10.766;2022-12-31T14:58:53;1.30;;;1.10;;
13406;SDS011;6774;48.208;10.766;2022-12-31T15:01:23;1.23;;;1.13;;
13406;SDS011;6774;48.208;10.766;2022-12-31T15:03:53;1.13;;;1.03;;
13406;SDS011;6774;48.208;10.766;2022-12-31T15:06:32;0.90;;;0.90;;
13406;SDS011;6774;48.208;10.766;2022-12-31T15:09:10;1.43;;;1.33;;
13406;SDS011;6774;48.208;10.766;2022-12-31T15:15:14;1.47;;;1.37;;
13406;SDS011;6774;48.208;10.766;2022-12-31T15:17:58;1.80;;;1.70;;
13406;SDS011;6774;48.208;10.766;2022-12-31T15:23:52;1.47;;;1.37;;
13406;SDS011;6774;48.208;10.766;2022-12-31T15:26:22;1.23;;;1.23;;
13406;SDS011;6774;48.208;10.766;2022-12-31T15:28:55;1.30;;;1.17;;
13406;SDS011;6774;48.208;10.766;2022-12-31T15:31:26;1.00;;;0.90;;
13406;SDS011;6774;48.208;10.766;2022-12-31T15:33:57;1.83;;;1.73;;
13406;SDS011;6774;48.208;10.766;2022-12-31T15:36:27;1.57;;;1.47;;
13406;SDS011;6774;48.208;10.766;2022-12-31T15:41:51;2.40;;;1.30;;
13406;SDS011;6774;48.208;10.766;2022-12-31T15:44:42;1.00;;;0.97;;
13406;SDS011;6774;48.208;10.766;2022-12-31T15:47:16;0.77;;;0.70;;
13406;SDS011;6774;48.208;10.766;2022-12-31T15:49:51;6.10;;;1.47;;
13406;SDS011;6774;48.208;10.766;2022-12-31T15:52:22;0.90;;;0.90;;
13406;SDS011;6774;48.208;10.766;2022-12-31T15:54:54;1.53;;;1.43;;
13406;SDS011;6774;48.208;10.766;2022-12-31T15:57:25;1.17;;;0.77;;
13406;SDS011;6774;48.208;10.766;2022-12-31T15:59:58;1.00;;;0.90;;
13406;SDS011;6774;48.208;10.766;2022-12-31T16:02:30;1.03;;;0.97;;